createdAt,value
2023-03-23T00:15:42.040Z,1008.7
2023-03-23T00:45:42.008Z,1008.19
2023-03-23T01:15:41.904Z,1008.37
2023-03-23T01:45:42.089Z,1008.1
2023-03-23T02:15:41.962Z,1008
2023-03-23T02:45:42.015Z,1007.66
2023-03-23T03:15:41.996Z,1007.58
2023-03-23T03:45:41.923Z,1007.32
2023-03-23T04:15:42.031Z,1007.35
2023-03-23T04:45:41.942Z,1007.36
2023-03-23T05:15:41.962Z,1007.36
2023-03-23T05:45:42.002Z,1007.22
2023-03-23T06:15:41.967Z,1007.28
2023-03-23T06:45:41.970Z,1007.38
2023-03-23T07:15:41.946Z,1007.74
2023-03-23T07:45:41.995Z,1007.96
2023-03-23T08:15:41.923Z,1008
2023-03-23T08:45:41.936Z,1008.28
2023-03-23T09:15:53.123Z,1008.5
2023-03-23T09:45:41.928Z,1008.53
2023-03-23T10:15:41.945Z,1008.68
2023-03-23T10:45:48.841Z,1009.14
2023-03-23T11:15:42.086Z,1009.33
2023-03-23T11:45:41.994Z,1009.47
2023-03-23T12:15:42.025Z,1009.39
2023-03-23T12:45:42.088Z,1009.11
2023-03-23T13:15:42.002Z,1008.94
2023-03-23T13:45:42.169Z,1008.94
2023-03-23T14:15:41.930Z,1008.63
2023-03-23T14:45:42.062Z,1008.38
2023-03-23T15:15:42.006Z,1008.64
2023-03-23T15:45:42.013Z,1008.55
2023-03-23T16:15:42.155Z,1008.45
2023-03-23T16:45:43.907Z,1008.56
2023-03-23T17:15:43.819Z,1008.38
2023-03-23T17:45:43.684Z,1008.34
2023-03-23T18:15:43.478Z,1008.17
2023-03-23T18:45:42.343Z,1008.15
2023-03-23T19:15:41.985Z,1008.33
2023-03-23T19:45:42.105Z,1008.16
2023-03-23T20:15:42.031Z,1008.07
2023-03-23T20:45:41.977Z,1008.04
2023-03-23T21:15:42.061Z,1007.92
2023-03-23T21:45:41.967Z,1007.77
2023-03-23T22:15:41.961Z,1007.65
2023-03-23T22:45:42.005Z,1007.25
2023-03-23T23:15:41.967Z,1006.9
2023-03-23T23:45:41.993Z,1006.63
